sensor_id;sensor_type;location;lat;lon;timestamp;P1;durP1;ratioP1;P2;durP2;ratioP2
9801;SDS011;4940;50.900;4.672;2023-03-03T00:01:15;25.30;;;13.13;;
9801;SDS011;4940;50.900;4.672;2023-03-03T00:03:42;24.70;;;12.33;;
9801;SDS011;4940;50.900;4.672;2023-03-03T00:06:10;23.97;;;11.70;;
9801;SDS011;4940;50.900;4.672;2023-03-03T00:08:40;25.60;;;12.47;;
9801;SDS011;4940;50.900;4.672;2023-03-03T00:11:08;22.93;;;11.63;;
9801;SDS011;4940;50.900;4.672;2023-03-03T00:13:38;28.73;;;12.00;;
9801;SDS011;4940;50.900;4.672;2023-03-03T00:16:12;26.23;;;11.50;;
9801;SDS011;4940;50.900;4.672;2023-03-03T00:18:44;23.43;;;11.17;;
9801;SDS011;4940;50.900;4.672;2023-03-03T00:21:21;24.07;;;11.53;;
9801;SDS011;4940;50.900;4.672;2023-03-03T00:24:18;24.70;;;12.40;;
9801;SDS011;4940;50.900;4.672;2023-03-03T00:26:47;25.20;;;12.20;;
9801;SDS011;4940;50.900;4.672;2023-03-03T00:29:23;30.27;;;14.00;;
9801;SDS011;4940;50.900;4.672;2023-03-03T00:31:55;24.53;;;11.40;;
9801;SDS011;4940;50.900;4.672;2023-03-03T00:34:33;23.27;;;11.73;;
9801;SDS011;4940;50.900;4.672;2023-03-03T00:37:00;28.00;;;12.70;;
9801;SDS011;4940;50.900;4.672;2023-03-03T00:39:29;31.38;;;16.98;;
9801;SDS011;4940;50.900;4.672;2023-03-03T00:41:59;27.23;;;15.60;;
9801;SDS011;4940;50.900;4.672;2023-03-03T00:44:35;30.37;;;13.80;;
9801;SDS011;4940;50.900;4.672;2023-03-03T00:47:15;21.87;;;11.90;;
9801;SDS011;4940;50.900;4.672;2023-03-03T00:49:50;24.03;;;11.90;;
9801;SDS011;4940;50.900;4.672;2023-03-03T00:52:18;25.07;;;12.33;;
9801;SDS011;4940;50.900;4.672;2023-03-03T00:54:47;24.63;;;12.60;;
9801;SDS011;4940;50.900;4.672;2023-03-03T00:57:15;24.40;;;12.43;;
9801;SDS011;4940;50.900;4.672;2023-03-03T00:59:42;22.07;;;11.23;;
9801;SDS011;4940;50.900;4.672;2023-03-03T01:02:10;21.73;;;11.50;;
9801;SDS011;4940;50.900;4.672;2023-03-03T01:04:37;26.67;;;11.60;;
9801;SDS011;4940;50.900;4.672;2023-03-03T01:07:06;21.30;;;11.73;;
9801;SDS011;4940;50.900;4.672;2023-03-03T01:09:33;26.10;;;11.83;;
9801;SDS011;4940;50.900;4.672;2023-03-03T01:12:02;23.87;;;11.73;;
9801;SDS011;4940;50.900;4.672;2023-03-03T01:14:30;19.70;;;11.07;;
9801;SDS011;4940;50.900;4.672;2023-03-03T01:16:57;22.77;;;11.53;;
9801;SDS011;4940;50.900;4.672;2023-03-03T01:19:25;25.67;;;12.20;;
9801;SDS011;4940;50.900;4.672;2023-03-03T01:21:52;22.77;;;12.07;;
9801;SDS011;4940;50.900;4.672;2023-03-03T01:24:20;24.50;;;12.17;;
9801;SDS011;4940;50.900;4.672;2023-03-03T01:26:47;22.57;;;11.50;;
9801;SDS011;4940;50.900;4.672;2023-03-03T01:29:16;24.43;;;12.63;;
9801;SDS011;4940;50.900;4.672;2023-03-03T01:31:43;23.23;;;12.57;;
9801;SDS011;4940;50.900;4.672;2023-03-03T01:34:11;22.67;;;11.33;;
9801;SDS011;4940;50.900;4.672;2023-03-03T01:36:38;24.00;;;11.23;;
9801;SDS011;4940;50.900;4.672;2023-03-03T01:39:05;24.00;;;11.60;;
9801;SDS011;4940;50.900;4.672;2023-03-03T01:41:33;24.60;;;11.93;;
9801;SDS011;4940;50.900;4.672;2023-03-03T01:44:00;22.37;;;11.77;;
9801;SDS011;4940;50.900;4.672;2023-03-03T01:46:32;23.43;;;11.47;;
9801;SDS011;4940;50.900;4.672;2023-03-03T01:49:11;26.43;;;12.87;;
9801;SDS011;4940;50.900;4.672;2023-03-03T01:51:42;22.57;;;11.13;;
9801;SDS011;4940;50.900;4.672;2023-03-03T01:54:15;24.83;;;12.30;;
9801;SDS011;4940;50.900;4.672;2023-03-03T01:56:45;24.40;;;12.27;;
9801;SDS011;4940;50.900;4.672;2023-03-03T01:59:13;23.30;;;12.70;;
9801;SDS011;4940;50.900;4.672;2023-03-03T02:01:45;22.63;;;12.17;;
9801;SDS011;4940;50.900;4.672;2023-03-03T02:04:13;24.77;;;13.20;;
9801;SDS011;4940;50.900;4.672;2023-03-03T02:06:42;22.37;;;12.60;;
9801;SDS011;4940;50.900;4.672;2023-03-03T02:09:13;23.60;;;12.10;;
9801;SDS011;4940;50.900;4.672;2023-03-03T02:11:47;25.83;;;12.77;;
9801;SDS011;4940;50.900;4.672;2023-03-03T02:14:17;23.53;;;12.50;;
9801;SDS011;4940;50.900;4.672;2023-03-03T02:16:46;24.93;;;13.00;;
9801;SDS011;4940;50.900;4.672;2023-03-03T02:19:16;21.67;;;11.30;;
9801;SDS011;4940;50.900;4.672;2023-03-03T02:21:49;28.07;;;12.67;;
9801;SDS011;4940;50.900;4.672;2023-03-03T02:24:21;24.53;;;12.77;;
9801;SDS011;4940;50.900;4.672;2023-03-03T02:26:54;22.97;;;12.00;;
9801;SDS011;4940;50.900;4.672;2023-03-03T02:29:21;21.10;;;11.63;;
9801;SDS011;4940;50.900;4.672;2023-03-03T02:31:49;23.63;;;11.63;;
9801;SDS011;4940;50.900;4.672;2023-03-03T02:34:16;23.90;;;12.23;;
9801;SDS011;4940;50.900;4.672;2023-03-03T02:36:43;23.50;;;12.63;;
9801;SDS011;4940;50.900;4.672;2023-03-03T02:39:12;26.07;;;13.90;;
9801;SDS011;4940;50.900;4.672;2023-03-03T02:41:43;23.03;;;13.03;;
9801;SDS011;4940;50.900;4.672;2023-03-03T02:44:20;24.40;;;13.43;;
9801;SDS011;4940;50.900;4.672;2023-03-03T02:46:48;28.93;;;14.37;;
9801;SDS011;4940;50.900;4.672;2023-03-03T02:49:18;25.30;;;14.07;;
9801;SDS011;4940;50.900;4.672;2023-03-03T02:51:47;23.80;;;12.80;;
9801;SDS011;4940;50.900;4.672;2023-03-03T02:54:15;27.10;;;13.37;;
9801;SDS011;4940;50.900;4.672;2023-03-03T02:56:44;24.80;;;13.60;;
9801;SDS011;4940;50.900;4.672;2023-03-03T02:59:11;28.07;;;14.77;;
9801;SDS011;4940;50.900;4.672;2023-03-03T03:01:40;27.93;;;15.30;;
9801;SDS011;4940;50.900;4.672;2023-03-03T03:04:09;23.97;;;13.70;;
9801;SDS011;4940;50.900;4.672;2023-03-03T03:06:37;28.10;;;14.53;;
9801;SDS011;4940;50.900;4.672;2023-03-03T03:09:05;28.83;;;14.80;;
9801;SDS011;4940;50.900;4.672;2023-03-03T03:11:33;28.57;;;16.03;;
9801;SDS011;4940;50.900;4.672;2023-03-03T03:14:01;29.60;;;17.27;;
9801;SDS011;4940;50.900;4.672;2023-03-03T03:16:28;30.83;;;18.13;;
9801;SDS011;4940;50.900;4.672;2023-03-03T03:18:58;30.43;;;20.43;;
9801;SDS011;4940;50.900;4.672;2023-03-03T03:21:26;31.20;;;21.97;;
9801;SDS011;4940;50.900;4.672;2023-03-03T03:23:53;33.77;;;22.93;;
9801;SDS011;4940;50.900;4.672;2023-03-03T03:26:21;35.23;;;25.17;;
9801;SDS011;4940;50.900;4.672;2023-03-03T03:28:49;37.23;;;24.53;;
9801;SDS011;4940;50.900;4.672;2023-03-03T03:31:17;40.53;;;27.60;;
9801;SDS011;4940;50.900;4.672;2023-03-03T03:33:45;39.40;;;25.40;;
9801;SDS011;4940;50.900;4.672;2023-03-03T03:36:14;35.27;;;24.27;;
9801;SDS011;4940;50.900;4.672;2023-03-03T03:38:42;36.57;;;25.63;;
9801;SDS011;4940;50.900;4.672;2023-03-03T03:41:10;37.43;;;27.27;;
9801;SDS011;4940;50.900;4.672;2023-03-03T03:43:38;33.43;;;24.87;;
9801;SDS011;4940;50.900;4.672;2023-03-03T03:46:06;33.60;;;24.93;;
9801;SDS011;4940;50.900;4.672;2023-03-03T03:48:33;40.40;;;26.87;;
9801;SDS011;4940;50.900;4.672;2023-03-03T03:51:01;39.10;;;24.47;;
9801;SDS011;4940;50.900;4.672;2023-03-03T03:53:30;37.93;;;23.80;;
9801;SDS011;4940;50.900;4.672;2023-03-03T03:55:57;35.97;;;24.77;;
9801;SDS011;4940;50.900;4.672;2023-03-03T03:58:24;36.47;;;25.10;;
9801;SDS011;4940;50.900;4.672;2023-03-03T04:00:52;35.90;;;24.47;;
9801;SDS011;4940;50.900;4.672;2023-03-03T04:03:19;33.60;;;23.50;;
9801;SDS011;4940;50.900;4.672;2023-03-03T04:05:47;37.03;;;24.60;;
9801;SDS011;4940;50.900;4.672;2023-03-03T04:08:15;36.90;;;25.40;;
9801;SDS011;4940;50.900;4.672;2023-03-03T04:10:44;38.20;;;24.53;;
9801;SDS011;4940;50.900;4.672;2023-03-03T04:13:11;34.73;;;24.13;;
9801;SDS011;4940;50.900;4.672;2023-03-03T04:15:38;36.27;;;23.13;;
9801;SDS011;4940;50.900;4.672;2023-03-03T04:18:06;34.83;;;24.17;;
9801;SDS011;4940;50.900;4.672;2023-03-03T04:20:33;38.03;;;24.73;;
9801;SDS011;4940;50.900;4.672;2023-03-03T04:23:01;39.83;;;23.93;;
9801;SDS011;4940;50.900;4.672;2023-03-03T04:25:28;32.97;;;23.87;;
9801;SDS011;4940;50.900;4.672;2023-03-03T04:27:57;35.37;;;21.83;;
9801;SDS011;4940;50.900;4.672;2023-03-03T04:30:24;36.27;;;24.57;;
9801;SDS011;4940;50.900;4.672;2023-03-03T04:32:52;33.03;;;25.43;;
9801;SDS011;4940;50.900;4.672;2023-03-03T04:35:19;35.97;;;25.27;;
9801;SDS011;4940;50.900;4.672;2023-03-03T04:37:47;32.47;;;25.23;;
9801;SDS011;4940;50.900;4.672;2023-03-03T04:40:14;37.70;;;24.77;;
9801;SDS011;4940;50.900;4.672;2023-03-03T04:42:42;33.43;;;24.03;;
9801;SDS011;4940;50.900;4.672;2023-03-03T04:45:11;36.47;;;23.27;;
9801;SDS011;4940;50.900;4.672;2023-03-03T04:47:38;30.80;;;22.80;;
9801;SDS011;4940;50.900;4.672;2023-03-03T04:50:06;28.87;;;20.10;;
9801;SDS011;4940;50.900;4.672;2023-03-03T04:52:35;31.70;;;21.53;;
9801;SDS011;4940;50.900;4.672;2023-03-03T04:55:02;32.30;;;21.03;;
9801;SDS011;4940;50.900;4.672;2023-03-03T04:57:30;31.80;;;22.33;;
9801;SDS011;4940;50.900;4.672;2023-03-03T04:59:57;33.80;;;22.73;;
9801;SDS011;4940;50.900;4.672;2023-03-03T05:02:26;32.73;;;23.33;;
9801;SDS011;4940;50.900;4.672;2023-03-03T05:04:54;34.17;;;23.27;;
9801;SDS011;4940;50.900;4.672;2023-03-03T05:07:22;37.50;;;26.10;;
9801;SDS011;4940;50.900;4.672;2023-03-03T05:09:49;35.37;;;25.87;;
9801;SDS011;4940;50.900;4.672;2023-03-03T05:12:17;32.60;;;24.07;;
9801;SDS011;4940;50.900;4.672;2023-03-03T05:14:44;34.43;;;25.27;;
9801;SDS011;4940;50.900;4.672;2023-03-03T05:17:11;30.20;;;23.67;;
9801;SDS011;4940;50.900;4.672;2023-03-03T05:19:40;38.33;;;23.97;;
9801;SDS011;4940;50.900;4.672;2023-03-03T05:22:08;34.53;;;22.90;;
9801;SDS011;4940;50.900;4.672;2023-03-03T05:24:35;35.10;;;24.00;;
9801;SDS011;4940;50.900;4.672;2023-03-03T05:27:03;35.57;;;25.00;;
9801;SDS011;4940;50.900;4.672;2023-03-03T05:29:30;38.80;;;26.27;;
9801;SDS011;4940;50.900;4.672;2023-03-03T05:31:58;34.43;;;24.30;;
9801;SDS011;4940;50.900;4.672;2023-03-03T05:34:25;37.23;;;24.90;;
9801;SDS011;4940;50.900;4.672;2023-03-03T05:36:54;31.10;;;22.57;;
9801;SDS011;4940;50.900;4.672;2023-03-03T05:39:21;37.47;;;24.30;;
9801;SDS011;4940;50.900;4.672;2023-03-03T05:41:49;34.63;;;24.17;;
9801;SDS011;4940;50.900;4.672;2023-03-03T05:44:16;31.83;;;23.53;;
9801;SDS011;4940;50.900;4.672;2023-03-03T05:46:44;35.40;;;26.00;;
9801;SDS011;4940;50.900;4.672;2023-03-03T05:49:11;38.67;;;25.63;;
9801;SDS011;4940;50.900;4.672;2023-03-03T05:51:39;34.77;;;24.80;;
9801;SDS011;4940;50.900;4.672;2023-03-03T05:54:07;39.77;;;26.57;;
9801;SDS011;4940;50.900;4.672;2023-03-03T05:56:35;41.73;;;25.90;;
9801;SDS011;4940;50.900;4.672;2023-03-03T05:59:02;35.87;;;26.20;;
9801;SDS011;4940;50.900;4.672;2023-03-03T06:01:30;39.07;;;25.00;;
9801;SDS011;4940;50.900;4.672;2023-03-03T06:03:57;34.93;;;24.43;;
9801;SDS011;4940;50.900;4.672;2023-03-03T06:06:24;41.37;;;25.10;;
9801;SDS011;4940;50.900;4.672;2023-03-03T06:08:52;39.60;;;23.50;;
9801;SDS011;4940;50.900;4.672;2023-03-03T06:11:21;39.63;;;24.70;;
9801;SDS011;4940;50.900;4.672;2023-03-03T06:13:48;36.30;;;25.63;;
9801;SDS011;4940;50.900;4.672;2023-03-03T06:16:15;36.67;;;24.23;;
9801;SDS011;4940;50.900;4.672;2023-03-03T06:18:43;36.40;;;24.00;;
9801;SDS011;4940;50.900;4.672;2023-03-03T06:21:10;37.73;;;23.50;;
9801;SDS011;4940;50.900;4.672;2023-03-03T06:23:38;35.07;;;22.70;;
9801;SDS011;4940;50.900;4.672;2023-03-03T06:26:06;31.87;;;22.97;;
9801;SDS011;4940;50.900;4.672;2023-03-03T06:28:34;30.53;;;21.87;;
9801;SDS011;4940;50.900;4.672;2023-03-03T06:31:02;37.27;;;23.03;;
9801;SDS011;4940;50.900;4.672;2023-03-03T06:33:29;34.87;;;22.77;;
9801;SDS011;4940;50.900;4.672;2023-03-03T06:35:56;33.20;;;24.17;;
9801;SDS011;4940;50.900;4.672;2023-03-03T06:38:25;35.40;;;23.60;;
9801;SDS011;4940;50.900;4.672;2023-03-03T06:40:52;40.03;;;23.50;;
9801;SDS011;4940;50.900;4.672;2023-03-03T06:43:20;33.00;;;23.00;;
9801;SDS011;4940;50.900;4.672;2023-03-03T06:45:48;30.37;;;21.87;;
9801;SDS011;4940;50.900;4.672;2023-03-03T06:48:16;31.97;;;22.70;;
9801;SDS011;4940;50.900;4.672;2023-03-03T06:50:43;34.40;;;23.50;;
9801;SDS011;4940;50.900;4.672;2023-03-03T06:53:11;39.23;;;23.90;;
9801;SDS011;4940;50.900;4.672;2023-03-03T06:55:39;35.90;;;23.03;;
9801;SDS011;4940;50.900;4.672;2023-03-03T06:58:10;38.10;;;24.03;;
9801;SDS011;4940;50.900;4.672;2023-03-03T07:00:39;44.53;;;23.70;;
9801;SDS011;4940;50.900;4.672;2023-03-03T07:03:13;37.53;;;23.30;;
9801;SDS011;4940;50.900;4.672;2023-03-03T07:05:41;35.30;;;23.47;;
9801;SDS011;4940;50.900;4.672;2023-03-03T07:08:11;39.13;;;23.87;;
9801;SDS011;4940;50.900;4.672;2023-03-03T07:10:40;41.40;;;25.97;;
9801;SDS011;4940;50.900;4.672;2023-03-03T07:13:15;38.37;;;25.47;;
9801;SDS011;4940;50.900;4.672;2023-03-03T07:15:45;38.70;;;25.80;;
9801;SDS011;4940;50.900;4.672;2023-03-03T07:18:22;36.03;;;25.13;;
9801;SDS011;4940;50.900;4.672;2023-03-03T07:20:56;38.20;;;26.93;;
9801;SDS011;4940;50.900;4.672;2023-03-03T07:23:25;37.83;;;26.57;;
9801;SDS011;4940;50.900;4.672;2023-03-03T07:25:54;34.33;;;26.63;;
9801;SDS011;4940;50.900;4.672;2023-03-03T07:28:22;33.60;;;26.50;;
9801;SDS011;4940;50.900;4.672;2023-03-03T07:30:50;36.53;;;26.83;;
9801;SDS011;4940;50.900;4.672;2023-03-03T07:33:22;37.60;;;27.77;;
9801;SDS011;4940;50.900;4.672;2023-03-03T07:35:53;37.33;;;27.77;;
9801;SDS011;4940;50.900;4.672;2023-03-03T07:38:23;36.50;;;26.83;;
9801;SDS011;4940;50.900;4.672;2023-03-03T07:40:56;37.83;;;28.23;;
9801;SDS011;4940;50.900;4.672;2023-03-03T07:43:29;36.93;;;28.93;;
9801;SDS011;4940;50.900;4.672;2023-03-03T07:46:02;39.93;;;28.43;;
9801;SDS011;4940;50.900;4.672;2023-03-03T07:48:48;35.90;;;28.30;;
9801;SDS011;4940;50.900;4.672;2023-03-03T07:51:18;34.83;;;27.77;;
9801;SDS011;4940;50.900;4.672;2023-03-03T07:53:49;32.10;;;25.27;;
9801;SDS011;4940;50.900;4.672;2023-03-03T07:56:21;36.77;;;29.13;;
9801;SDS011;4940;50.900;4.672;2023-03-03T07:58:55;34.80;;;27.13;;
9801;SDS011;4940;50.900;4.672;2023-03-03T08:01:28;38.03;;;26.77;;
9801;SDS011;4940;50.900;4.672;2023-03-03T08:04:09;37.43;;;27.07;;
9801;SDS011;4940;50.900;4.672;2023-03-03T08:06:51;33.83;;;25.37;;
9801;SDS011;4940;50.900;4.672;2023-03-03T08:09:29;34.80;;;25.00;;
9801;SDS011;4940;50.900;4.672;2023-03-03T08:12:10;41.10;;;26.73;;
9801;SDS011;4940;50.900;4.672;2023-03-03T08:15:01;34.30;;;24.70;;
9801;SDS011;4940;50.900;4.672;2023-03-03T08:17:42;40.77;;;25.90;;
9801;SDS011;4940;50.900;4.672;2023-03-03T08:23:19;33.77;;;24.60;;
9801;SDS011;4940;50.900;4.672;2023-03-03T08:25:46;37.80;;;27.90;;
9801;SDS011;4940;50.900;4.672;2023-03-03T08:28:15;38.00;;;26.07;;
9801;SDS011;4940;50.900;4.672;2023-03-03T08:30:42;33.63;;;27.10;;
9801;SDS011;4940;50.900;4.672;2023-03-03T08:33:10;35.77;;;27.60;;
9801;SDS011;4940;50.900;4.672;2023-03-03T08:35:37;38.10;;;27.43;;
9801;SDS011;4940;50.900;4.672;2023-03-03T08:38:05;33.77;;;26.97;;
9801;SDS011;4940;50.900;4.672;2023-03-03T08:40:34;38.00;;;27.90;;
9801;SDS011;4940;50.900;4.672;2023-03-03T08:43:01;35.37;;;25.57;;
9801;SDS011;4940;50.900;4.672;2023-03-03T08:45:29;34.37;;;25.73;;
9801;SDS011;4940;50.900;4.672;2023-03-03T08:47:57;35.07;;;26.07;;
9801;SDS011;4940;50.900;4.672;2023-03-03T08:50:25;36.77;;;26.00;;
9801;SDS011;4940;50.900;4.672;2023-03-03T08:52:53;35.77;;;24.77;;
9801;SDS011;4940;50.900;4.672;2023-03-03T08:55:20;34.93;;;24.63;;
9801;SDS011;4940;50.900;4.672;2023-03-03T08:57:49;33.60;;;24.43;;
9801;SDS011;4940;50.900;4.672;2023-03-03T09:00:16;37.97;;;26.40;;
9801;SDS011;4940;50.900;4.672;2023-03-03T09:02:44;33.10;;;24.63;;
9801;SDS011;4940;50.900;4.672;2023-03-03T09:05:12;32.37;;;23.70;;
9801;SDS011;4940;50.900;4.672;2023-03-03T09:07:39;30.03;;;22.23;;
9801;SDS011;4940;50.900;4.672;2023-03-03T09:10:07;33.50;;;24.60;;
9801;SDS011;4940;50.900;4.672;2023-03-03T09:12:37;33.47;;;22.40;;
9801;SDS011;4940;50.900;4.672;2023-03-03T09:15:15;34.60;;;21.13;;
9801;SDS011;4940;50.900;4.672;2023-03-03T09:17:46;30.20;;;22.10;;
9801;SDS011;4940;50.900;4.672;2023-03-03T09:20:26;28.23;;;22.70;;
9801;SDS011;4940;50.900;4.672;2023-03-03T09:22:58;36.63;;;23.43;;
9801;SDS011;4940;50.900;4.672;2023-03-03T09:25:28;33.17;;;23.03;;
9801;SDS011;4940;50.900;4.672;2023-03-03T09:27:58;37.23;;;22.30;;
9801;SDS011;4940;50.900;4.672;2023-03-03T09:30:33;36.43;;;22.97;;
9801;SDS011;4940;50.900;4.672;2023-03-03T09:33:18;31.97;;;22.60;;
9801;SDS011;4940;50.900;4.672;2023-03-03T09:35:49;36.57;;;22.13;;
9801;SDS011;4940;50.900;4.672;2023-03-03T09:38:28;34.43;;;21.70;;
9801;SDS011;4940;50.900;4.672;2023-03-03T09:44:05;29.67;;;21.83;;
9801;SDS011;4940;50.900;4.672;2023-03-03T09:46:51;33.40;;;21.30;;
9801;SDS011;4940;50.900;4.672;2023-03-03T09:49:28;29.83;;;20.37;;
9801;SDS011;4940;50.900;4.672;2023-03-03T09:52:10;38.33;;;20.57;;
9801;SDS011;4940;50.900;4.672;2023-03-03T09:55:01;35.73;;;21.37;;
9801;SDS011;4940;50.900;4.672;2023-03-03T09:57:58;31.70;;;21.10;;
9801;SDS011;4940;50.900;4.672;2023-03-03T10:00:35;31.60;;;19.03;;
9801;SDS011;4940;50.900;4.672;2023-03-03T10:03:14;36.27;;;20.97;;
9801;SDS011;4940;50.900;4.672;2023-03-03T10:06:17;28.43;;;17.40;;
9801;SDS011;4940;50.900;4.672;2023-03-03T10:08:52;29.87;;;19.43;;
9801;SDS011;4940;50.900;4.672;2023-03-03T10:11:35;33.73;;;20.07;;
9801;SDS011;4940;50.900;4.672;2023-03-03T10:14:14;34.30;;;18.17;;
9801;SDS011;4940;50.900;4.672;2023-03-03T10:20:08;32.27;;;17.20;;
9801;SDS011;4940;50.900;4.672;2023-03-03T10:22:47;34.43;;;17.63;;
9801;SDS011;4940;50.900;4.672;2023-03-03T10:25:21;33.90;;;16.77;;
9801;SDS011;4940;50.900;4.672;2023-03-03T10:27:57;36.80;;;16.27;;
9801;SDS011;4940;50.900;4.672;2023-03-03T10:30:43;28.77;;;15.23;;
9801;SDS011;4940;50.900;4.672;2023-03-03T10:33:19;31.13;;;15.07;;
9801;SDS011;4940;50.900;4.672;2023-03-03T10:36:05;29.80;;;14.33;;
9801;SDS011;4940;50.900;4.672;2023-03-03T10:39:01;31.17;;;12.33;;
9801;SDS011;4940;50.900;4.672;2023-03-03T10:41:47;33.63;;;14.03;;
9801;SDS011;4940;50.900;4.672;2023-03-03T10:44:26;27.53;;;12.87;;
9801;SDS011;4940;50.900;4.672;2023-03-03T10:47:06;28.47;;;12.80;;
9801;SDS011;4940;50.900;4.672;2023-03-03T10:49:55;29.43;;;12.07;;
9801;SDS011;4940;50.900;4.672;2023-03-03T10:52:32;28.57;;;11.23;;
9801;SDS011;4940;50.900;4.672;2023-03-03T10:55:12;27.67;;;10.83;;
9801;SDS011;4940;50.900;4.672;2023-03-03T10:58:16;29.63;;;11.43;;
9801;SDS011;4940;50.900;4.672;2023-03-03T11:00:57;32.83;;;11.93;;
9801;SDS011;4940;50.900;4.672;2023-03-03T11:03:41;24.43;;;11.07;;
9801;SDS011;4940;50.900;4.672;2023-03-03T11:06:28;26.07;;;10.50;;
9801;SDS011;4940;50.900;4.672;2023-03-03T11:09:07;25.37;;;10.80;;
9801;SDS011;4940;50.900;4.672;2023-03-03T11:11:43;29.57;;;11.20;;
9801;SDS011;4940;50.900;4.672;2023-03-03T11:14:20;26.53;;;11.03;;
9801;SDS011;4940;50.900;4.672;2023-03-03T11:16:54;25.57;;;10.13;;
9801;SDS011;4940;50.900;4.672;2023-03-03T11:19:39;21.73;;;10.10;;
9801;SDS011;4940;50.900;4.672;2023-03-03T11:22:30;29.05;;;11.18;;
9801;SDS011;4940;50.900;4.672;2023-03-03T11:25:04;21.33;;;9.40;;
9801;SDS011;4940;50.900;4.672;2023-03-03T11:27:49;23.30;;;9.03;;
9801;SDS011;4940;50.900;4.672;2023-03-03T11:30:38;21.83;;;9.60;;
9801;SDS011;4940;50.900;4.672;2023-03-03T11:33:11;22.23;;;8.87;;
9801;SDS011;4940;50.900;4.672;2023-03-03T11:35:43;24.23;;;9.33;;
9801;SDS011;4940;50.900;4.672;2023-03-03T11:38:16;25.57;;;9.17;;
9801;SDS011;4940;50.900;4.672;2023-03-03T11:40:58;25.13;;;9.97;;
9801;SDS011;4940;50.900;4.672;2023-03-03T11:43:30;20.03;;;9.60;;
9801;SDS011;4940;50.900;4.672;2023-03-03T11:46:04;24.57;;;9.43;;
9801;SDS011;4940;50.900;4.672;2023-03-03T11:48:35;23.47;;;9.97;;
9801;SDS011;4940;50.900;4.672;2023-03-03T11:51:09;21.97;;;8.70;;
9801;SDS011;4940;50.900;4.672;2023-03-03T11:53:47;22.47;;;9.27;;
9801;SDS011;4940;50.900;4.672;2023-03-03T11:56:22;19.70;;;8.93;;
9801;SDS011;4940;50.900;4.672;2023-03-03T11:59:04;18.43;;;8.13;;
9801;SDS011;4940;50.900;4.672;2023-03-03T12:01:46;21.50;;;8.43;;
9801;SDS011;4940;50.900;4.672;2023-03-03T12:04:19;20.27;;;8.47;;
9801;SDS011;4940;50.900;4.672;2023-03-03T12:06:52;18.37;;;8.93;;
9801;SDS011;4940;50.900;4.672;2023-03-03T12:09:36;17.30;;;8.02;;
9801;SDS011;4940;50.900;4.672;2023-03-03T12:12:13;24.67;;;8.10;;
9801;SDS011;4940;50.900;4.672;2023-03-03T12:14:48;17.55;;;8.38;;
9801;SDS011;4940;50.900;4.672;2023-03-03T12:17:40;19.48;;;8.38;;
9801;SDS011;4940;50.900;4.672;2023-03-03T12:20:17;22.63;;;8.07;;
9801;SDS011;4940;50.900;4.672;2023-03-03T12:22:52;18.73;;;7.75;;
9801;SDS011;4940;50.900;4.672;2023-03-03T12:25:32;19.67;;;8.53;;
9801;SDS011;4940;50.900;4.672;2023-03-03T12:28:06;19.52;;;8.07;;
9801;SDS011;4940;50.900;4.672;2023-03-03T12:30:46;18.80;;;8.38;;
9801;SDS011;4940;50.900;4.672;2023-03-03T12:33:43;17.10;;;7.85;;
9801;SDS011;4940;50.900;4.672;2023-03-03T12:36:27;19.27;;;7.80;;
9801;SDS011;4940;50.900;4.672;2023-03-03T12:39:15;16.10;;;7.97;;
9801;SDS011;4940;50.900;4.672;2023-03-03T12:41:52;19.50;;;8.30;;
9801;SDS011;4940;50.900;4.672;2023-03-03T12:44:28;18.55;;;8.23;;
9801;SDS011;4940;50.900;4.672;2023-03-03T12:47:05;21.30;;;8.20;;
9801;SDS011;4940;50.900;4.672;2023-03-03T12:49:45;22.42;;;8.43;;
9801;SDS011;4940;50.900;4.672;2023-03-03T12:52:29;16.88;;;7.47;;
9801;SDS011;4940;50.900;4.672;2023-03-03T12:55:09;19.02;;;8.00;;
9801;SDS011;4940;50.900;4.672;2023-03-03T12:57:44;18.05;;;8.05;;
9801;SDS011;4940;50.900;4.672;2023-03-03T13:00:25;18.52;;;8.32;;
9801;SDS011;4940;50.900;4.672;2023-03-03T13:03:00;17.92;;;8.43;;
9801;SDS011;4940;50.900;4.672;2023-03-03T13:05:39;16.98;;;8.07;;
9801;SDS011;4940;50.900;4.672;2023-03-03T13:08:17;20.98;;;8.38;;
9801;SDS011;4940;50.900;4.672;2023-03-03T13:10:58;19.13;;;8.07;;
9801;SDS011;4940;50.900;4.672;2023-03-03T13:13:33;22.17;;;8.38;;
9801;SDS011;4940;50.900;4.672;2023-03-03T13:16:08;16.65;;;7.75;;
9801;SDS011;4940;50.900;4.672;2023-03-03T13:18:42;16.75;;;7.85;;
9801;SDS011;4940;50.900;4.672;2023-03-03T13:21:18;16.67;;;7.82;;
9801;SDS011;4940;50.900;4.672;2023-03-03T13:23:50;18.88;;;8.05;;
9801;SDS011;4940;50.900;4.672;2023-03-03T13:26:24;17.45;;;7.57;;
9801;SDS011;4940;50.900;4.672;2023-03-03T13:29:00;17.15;;;7.43;;
9801;SDS011;4940;50.900;4.672;2023-03-03T13:31:37;18.45;;;8.02;;
9801;SDS011;4940;50.900;4.672;2023-03-03T13:34:07;19.77;;;8.18;;
9801;SDS011;4940;50.900;4.672;2023-03-03T13:36:43;20.10;;;8.73;;
9801;SDS011;4940;50.900;4.672;2023-03-03T13:39:18;15.93;;;7.65;;
9801;SDS011;4940;50.900;4.672;2023-03-03T13:41:50;16.65;;;7.97;;
9801;SDS011;4940;50.900;4.672;2023-03-03T13:44:23;17.52;;;8.52;;
9801;SDS011;4940;50.900;4.672;2023-03-03T13:46:57;18.35;;;7.75;;
9801;SDS011;4940;50.900;4.672;2023-03-03T13:49:38;17.02;;;7.80;;
9801;SDS011;4940;50.900;4.672;2023-03-03T13:52:14;15.50;;;7.00;;
9801;SDS011;4940;50.900;4.672;2023-03-03T13:54:52;19.27;;;7.50;;
9801;SDS011;4940;50.900;4.672;2023-03-03T13:57:36;15.93;;;7.70;;
9801;SDS011;4940;50.900;4.672;2023-03-03T14:00:18;15.85;;;7.50;;
9801;SDS011;4940;50.900;4.672;2023-03-03T14:02:59;17.13;;;7.15;;
9801;SDS011;4940;50.900;4.672;2023-03-03T14:05:35;17.50;;;7.72;;
9801;SDS011;4940;50.900;4.672;2023-03-03T14:08:06;22.02;;;7.82;;
9801;SDS011;4940;50.900;4.672;2023-03-03T14:10:42;16.00;;;7.25;;
9801;SDS011;4940;50.900;4.672;2023-03-03T14:13:15;16.80;;;7.15;;
9801;SDS011;4940;50.900;4.672;2023-03-03T14:15:49;17.58;;;7.55;;
9801;SDS011;4940;50.900;4.672;2023-03-03T14:18:24;17.63;;;7.95;;
9801;SDS011;4940;50.900;4.672;2023-03-03T14:20:57;16.33;;;7.13;;
9801;SDS011;4940;50.900;4.672;2023-03-03T14:23:31;15.90;;;7.13;;
9801;SDS011;4940;50.900;4.672;2023-03-03T14:26:08;15.43;;;7.47;;
9801;SDS011;4940;50.900;4.672;2023-03-03T14:28:39;14.70;;;6.82;;
9801;SDS011;4940;50.900;4.672;2023-03-03T14:31:14;13.95;;;6.45;;
9801;SDS011;4940;50.900;4.672;2023-03-03T14:33:46;17.27;;;7.55;;
9801;SDS011;4940;50.900;4.672;2023-03-03T14:36:25;14.27;;;6.97;;
9801;SDS011;4940;50.900;4.672;2023-03-03T14:38:54;15.05;;;7.13;;
9801;SDS011;4940;50.900;4.672;2023-03-03T14:41:22;14.10;;;6.78;;
9801;SDS011;4940;50.900;4.672;2023-03-03T14:44:06;14.57;;;6.90;;
9801;SDS011;4940;50.900;4.672;2023-03-03T14:46:59;17.23;;;6.80;;
9801;SDS011;4940;50.900;4.672;2023-03-03T14:49:33;15.30;;;6.65;;
9801;SDS011;4940;50.900;4.672;2023-03-03T14:52:02;17.05;;;7.47;;
9801;SDS011;4940;50.900;4.672;2023-03-03T14:54:37;14.98;;;6.65;;
9801;SDS011;4940;50.900;4.672;2023-03-03T14:57:08;12.13;;;6.10;;
9801;SDS011;4940;50.900;4.672;2023-03-03T14:59:40;14.00;;;5.72;;
9801;SDS011;4940;50.900;4.672;2023-03-03T15:02:26;13.60;;;6.20;;
9801;SDS011;4940;50.900;4.672;2023-03-03T15:07:46;14.23;;;6.25;;
9801;SDS011;4940;50.900;4.672;2023-03-03T15:10:31;12.30;;;6.13;;
9801;SDS011;4940;50.900;4.672;2023-03-03T15:13:08;13.70;;;5.75;;
9801;SDS011;4940;50.900;4.672;2023-03-03T15:15:59;13.40;;;5.63;;
9801;SDS011;4940;50.900;4.672;2023-03-03T15:18:29;14.02;;;5.95;;
9801;SDS011;4940;50.900;4.672;2023-03-03T15:21:00;11.65;;;5.82;;
9801;SDS011;4940;50.900;4.672;2023-03-03T15:26:22;15.90;;;6.20;;
9801;SDS011;4940;50.900;4.672;2023-03-03T15:28:55;12.60;;;5.88;;
9801;SDS011;4940;50.900;4.672;2023-03-03T15:31:32;14.73;;;6.25;;
9801;SDS011;4940;50.900;4.672;2023-03-03T15:34:14;9.40;;;5.68;;
9801;SDS011;4940;50.900;4.672;2023-03-03T15:36:55;12.40;;;6.22;;
9801;SDS011;4940;50.900;4.672;2023-03-03T15:39:30;13.98;;;5.70;;